Time;durP1;ratioP1;P1;durP2;ratioP2;P2;SDS_P1;SDS_P2;PMS_P1;PMS_P2;Temp;Humidity;BMP_temperature;BMP_pressure;BME280_temperature;BME280_humidity;BME280_pressure;Samples;Min_cycle;Max_cycle;Signal;HPM_P1;HPM_P2
2022/11/08 00:03:28;;;;;;;7.85;2.15;;;13.40;99.90;;;;;;5108717;28;20197;-72
2022/11/08 00:14:08;;;;;;;125.55;93.60;;;13.50;99.90;;;;;;5089744;28;20525;-73
2022/11/08 00:16:34;;;;;;;7.55;3.30;;;13.50;99.90;;;;;;5086533;28;20027;-72
2022/11/08 00:19:00;;;;;;;8.90;2.78;;;13.50;99.90;;;;;;5107807;28;20164;-72
2022/11/08 00:21:26;;;;;;;3.25;1.83;;;13.50;99.90;;;;;;5102048;28;20027;-72
2022/11/08 00:23:52;;;;;;;6.72;2.00;;;13.50;99.90;;;;;;5090551;28;20027;-72
2022/11/08 00:26:18;;;;;;;8.50;2.15;;;13.50;99.90;;;;;;5089804;28;20602;-72
2022/11/08 00:28:43;;;;;;;9.18;2.22;;;13.50;99.90;;;;;;5089078;28;20031;-72
2022/11/08 00:31:09;;;;;;;6.75;1.73;;;13.40;99.90;;;;;;5101645;28;20055;-72
2022/11/08 00:33:35;;;;;;;8.63;2.42;;;13.40;99.90;;;;;;5104013;28;20027;-72
2022/11/08 00:36:01;;;;;;;4.90;1.80;;;13.40;99.90;;;;;;5105508;28;20023;-72
2022/11/08 00:38:27;;;;;;;4.70;2.35;;;13.30;99.90;;;;;;5110071;28;20206;-72
2022/11/08 00:40:52;;;;;;;5.88;1.65;;;13.30;99.90;;;;;;5085213;28;20077;-72
2022/11/08 00:43:18;;;;;;;4.68;1.85;;;13.30;99.90;;;;;;5087594;28;20024;-71
2022/11/08 00:45:44;;;;;;;8.52;2.40;;;13.30;99.90;;;;;;5088259;28;20020;-71
2022/11/08 00:48:09;;;;;;;8.68;2.42;;;13.30;99.90;;;;;;5108202;28;20441;-72
2022/11/08 00:50:39;;;;;;;4.72;1.63;;;13.20;99.90;;;;;;5086308;28;20467;-72
2022/11/08 00:53:05;;;;;;;7.20;2.13;;;13.20;99.90;;;;;;5108710;28;20032;-72
2022/11/08 00:55:31;;;;;;;9.38;2.42;;;13.20;99.90;;;;;;5105770;28;20042;-72
2022/11/08 00:57:57;;;;;;;9.90;2.10;;;13.20;99.90;;;;;;5090503;28;20040;-72
2022/11/08 01:00:23;;;;;;;6.68;2.17;;;13.20;99.90;;;;;;5084686;28;20050;-72
2022/11/08 01:03:17;;;;;;;7.47;1.88;;;13.10;99.90;;;;;;5107334;28;20258;-72
2022/11/08 01:05:38;;;;;;;8.23;2.10;;;13.10;99.90;;;;;;5104290;28;20020;-72
2022/11/08 01:08:03;;;;;;;7.20;2.40;;;13.10;99.90;;;;;;5088458;28;20023;-71
2022/11/08 01:10:29;;;;;;;9.48;2.70;;;13.10;99.90;;;;;;5106696;28;20031;-71
2022/11/08 01:12:55;;;;;;;5.28;2.10;;;13.10;99.90;;;;;;5106924;28;20469;-71
2022/11/08 01:15:20;;;;;;;6.50;2.30;;;13.10;99.90;;;;;;5103283;28;20058;-72
2022/11/08 01:17:46;;;;;;;8.27;2.60;;;13.10;99.90;;;;;;5086236;28;20027;-72
2022/11/08 01:20:12;;;;;;;11.50;2.35;;;13.10;99.90;;;;;;5102769;28;20518;-72
2022/11/08 01:22:37;;;;;;;5.43;1.85;;;13.10;99.90;;;;;;5083454;28;20028;-72
2022/11/08 01:25:03;;;;;;;10.50;2.20;;;13.00;99.90;;;;;;5090442;28;20024;-73
2022/11/08 01:27:29;;;;;;;7.43;2.00;;;13.10;99.90;;;;;;5106002;28;20442;-72
2022/11/08 01:29:55;;;;;;;7.28;2.30;;;13.10;99.90;;;;;;5106973;28;20031;-71
2022/11/08 01:32:20;;;;;;;9.70;2.20;;;13.10;99.90;;;;;;5088796;28;20088;-72
2022/11/08 01:34:46;;;;;;;6.95;2.40;;;13.10;99.90;;;;;;5088148;28;20032;-72
2022/11/08 01:37:11;;;;;;;4.18;1.70;;;13.10;99.90;;;;;;5104035;28;20035;-72
2022/11/08 01:39:37;;;;;;;4.53;1.75;;;13.10;99.90;;;;;;5072135;28;20116;-72
2022/11/08 01:42:03;;;;;;;7.85;1.80;;;13.00;99.90;;;;;;5093094;28;20067;-72
2022/11/08 01:44:28;;;;;;;9.60;2.63;;;13.00;99.90;;;;;;5108175;28;20047;-72
2022/11/08 01:46:54;;;;;;;5.07;1.90;;;13.00;99.90;;;;;;5106391;28;20039;-72
2022/11/08 01:49:28;;;;;;;7.30;2.17;;;13.00;99.90;;;;;;5103123;28;20401;-72
2022/11/08 01:51:56;;;;;;;8.48;2.42;;;13.00;99.90;;;;;;5104688;28;20451;-72
2022/11/08 01:54:50;;;;;;;8.10;2.83;;;12.90;99.90;;;;;;5070472;28;20406;-72
2022/11/08 01:57:21;;;;;;;6.32;2.08;;;12.90;99.90;;;;;;5106730;28;20178;-72
2022/11/08 01:59:49;;;;;;;10.38;2.45;;;12.90;99.90;;;;;;5104873;28;20028;-72
2022/11/08 02:02:16;;;;;;;6.82;1.90;;;12.90;99.90;;;;;;5105865;28;20020;-72
2022/11/08 02:04:42;;;;;;;6.40;2.58;;;12.90;99.90;;;;;;5101681;28;20035;-72
2022/11/08 02:07:11;;;;;;;7.88;2.42;;;12.90;99.90;;;;;;5092963;28;20047;-72
2022/11/08 02:09:38;;;;;;;9.65;2.35;;;12.90;99.90;;;;;;5086582;28;20027;-73
2022/11/08 02:12:06;;;;;;;3.55;1.67;;;12.90;99.90;;;;;;5103454;28;20056;-72
2022/11/08 02:14:32;;;;;;;8.27;2.30;;;12.90;99.90;;;;;;5086992;28;20024;-72
2022/11/08 02:16:58;;;;;;;6.72;2.38;;;12.90;99.90;;;;;;5070822;28;20054;-72
2022/11/08 02:19:38;;;;;;;9.57;2.50;;;13.00;99.90;;;;;;5086803;28;20394;-73
2022/11/08 02:22:11;;;;;;;5.53;1.90;;;13.00;99.90;;;;;;5108226;28;20477;-72
2022/11/08 02:24:38;;;;;;;6.00;1.77;;;13.00;99.90;;;;;;5085037;28;20024;-73
2022/11/08 02:27:03;;;;;;;5.65;2.38;;;13.00;99.90;;;;;;5103590;28;20091;-72
2022/11/08 02:29:34;;;;;;;8.32;1.98;;;13.10;99.90;;;;;;5087215;28;20024;-72
2022/11/08 02:32:01;;;;;;;5.15;2.20;;;13.10;99.90;;;;;;5107198;28;20031;-72
2022/11/08 02:34:44;;;;;;;9.38;2.60;;;13.10;99.90;;;;;;5088764;28;20027;-72
2022/11/08 02:37:12;;;;;;;4.45;2.30;;;13.10;99.90;;;;;;5084257;28;20028;-72
2022/11/08 02:39:38;;;;;;;6.45;2.38;;;13.20;99.90;;;;;;5101228;28;20027;-73
2022/11/08 02:42:03;;;;;;;6.85;2.40;;;13.20;99.90;;;;;;5069817;28;20122;-72
2022/11/08 02:44:29;;;;;;;7.03;2.08;;;13.20;99.90;;;;;;5104119;28;20024;-72
2022/11/08 02:46:55;;;;;;;7.15;2.30;;;13.30;99.90;;;;;;5086502;28;20136;-72
2022/11/08 02:49:21;;;;;;;10.23;2.28;;;13.30;99.90;;;;;;5085983;28;20055;-72
2022/11/08 02:51:46;;;;;;;6.93;2.42;;;13.30;99.90;;;;;;5103189;28;20501;-72
2022/11/08 02:54:12;;;;;;;7.00;2.17;;;13.30;99.90;;;;;;5087798;28;20039;-72
2022/11/08 02:56:38;;;;;;;10.07;2.70;;;13.30;99.90;;;;;;5109544;28;20030;-72
2022/11/08 02:59:05;;;;;;;10.68;2.33;;;13.30;99.90;;;;;;5093187;28;20020;-72
2022/11/08 03:01:30;;;;;;;9.27;2.67;;;13.30;99.90;;;;;;5087604;28;20031;-72
2022/11/08 03:03:56;;;;;;;11.07;2.78;;;13.30;99.90;;;;;;5108294;28;20388;-72
2022/11/08 03:06:22;;;;;;;11.18;2.80;;;13.30;99.90;;;;;;5106484;28;20118;-72
2022/11/08 03:08:47;;;;;;;8.18;2.05;;;13.30;99.90;;;;;;5110311;28;20191;-72
2022/11/08 03:11:13;;;;;;;10.40;1.90;;;13.30;99.90;;;;;;5089729;28;20468;-73
2022/11/08 03:13:38;;;;;;;8.38;2.40;;;13.30;99.90;;;;;;5107510;27;20114;-72
2022/11/08 03:16:05;;;;;;;7.57;2.00;;;13.30;99.90;;;;;;5084859;28;20020;-72
2022/11/08 03:18:31;;;;;;;6.55;1.92;;;13.30;99.90;;;;;;5108314;28;20499;-72
2022/11/08 03:21:01;;;;;;;7.30;2.13;;;13.20;99.90;;;;;;5086782;28;20039;-72
2022/11/08 03:23:26;;;;;;;9.55;2.78;;;13.20;99.90;;;;;;5109771;28;20035;-72
2022/11/08 03:25:52;;;;;;;6.45;1.90;;;13.20;99.90;;;;;;5106747;28;20027;-73
2022/11/08 03:28:18;;;;;;;12.60;2.72;;;13.20;99.90;;;;;;5091773;28;20055;-72
2022/11/08 03:30:43;;;;;;;9.30;2.38;;;13.10;99.90;;;;;;5106316;28;20380;-72
2022/11/08 03:33:09;;;;;;;8.52;2.53;;;13.10;99.90;;;;;;5091248;28;20036;-72
2022/11/08 03:35:35;;;;;;;10.13;2.35;;;13.10;99.90;;;;;;5104139;28;20032;-73
2022/11/08 03:38:00;;;;;;;13.57;3.03;;;13.10;99.90;;;;;;5089727;28;20542;-72
2022/11/08 03:40:26;;;;;;;9.75;2.08;;;13.00;99.90;;;;;;5107191;28;20034;-73
2022/11/08 03:42:54;;;;;;;7.18;1.90;;;13.00;99.90;;;;;;5108934;28;20483;-72
2022/11/08 03:45:19;;;;;;;6.10;1.98;;;13.00;99.90;;;;;;5085872;28;20032;-72
2022/11/08 03:47:46;;;;;;;10.35;2.70;;;13.00;99.90;;;;;;5089542;28;20506;-73
2022/11/08 03:50:13;;;;;;;7.75;2.50;;;12.90;99.90;;;;;;5088380;28;20039;-73
2022/11/08 03:52:44;;;;;;;7.10;2.30;;;12.90;99.90;;;;;;5092359;28;20019;-73
2022/11/08 03:55:11;;;;;;;9.68;3.05;;;12.90;99.90;;;;;;5089750;28;20363;-73
2022/11/08 03:57:38;;;;;;;12.18;3.00;;;12.90;99.90;;;;;;5090757;28;20098;-72
2022/11/08 04:00:06;;;;;;;11.65;2.67;;;12.90;99.90;;;;;;5107910;28;20032;-72
2022/11/08 04:02:32;;;;;;;10.13;2.40;;;12.80;99.90;;;;;;5106935;28;20360;-72
2022/11/08 04:04:57;;;;;;;8.45;2.50;;;12.80;99.90;;;;;;5087645;28;20085;-73
2022/11/08 04:07:23;;;;;;;7.43;1.98;;;12.80;99.90;;;;;;5084430;28;20024;-72
2022/11/08 04:09:49;;;;;;;9.30;2.58;;;12.80;99.90;;;;;;5106207;28;20039;-72
2022/11/08 04:15:14;;;;;;;6.90;2.83;;;12.80;99.90;;;;;;5084794;28;20066;-72
2022/11/08 04:23:26;;;;;;;9.93;3.08;;;12.70;99.90;;;;;;5105102;28;20031;-72
2022/11/08 04:25:57;;;;;;;10.73;3.03;;;12.70;99.90;;;;;;5108790;28;20039;-72
2022/11/08 04:28:25;;;;;;;8.70;2.05;;;12.70;99.90;;;;;;5103014;28;20055;-72
2022/11/08 04:30:55;;;;;;;6.90;1.80;;;12.70;99.90;;;;;;5107595;28;20032;-72
2022/11/08 04:33:21;;;;;;;9.55;2.38;;;12.70;99.90;;;;;;5105760;28;20082;-71
2022/11/08 04:35:48;;;;;;;10.10;2.75;;;12.70;99.90;;;;;;5102089;28;20044;-72
2022/11/08 04:38:14;;;;;;;7.50;2.58;;;12.60;99.90;;;;;;5087207;28;20047;-72
2022/11/08 04:40:40;;;;;;;7.10;1.98;;;12.60;99.90;;;;;;5105000;28;20024;-72
2022/11/08 04:43:06;;;;;;;12.35;2.45;;;12.60;99.90;;;;;;5106408;28;20103;-72
2022/11/08 04:45:31;;;;;;;5.10;2.42;;;12.60;99.90;;;;;;5072538;28;20023;-71
2022/11/08 04:47:57;;;;;;;7.15;2.13;;;12.60;99.90;;;;;;5090204;28;20103;-72
2022/11/08 04:50:22;;;;;;;8.20;3.05;;;12.60;99.90;;;;;;5090895;28;20097;-72
2022/11/08 04:52:53;;;;;;;8.45;2.60;;;12.60;99.90;;;;;;5089982;28;20024;-71
2022/11/08 04:55:20;;;;;;;7.20;2.37;;;12.50;99.90;;;;;;5086153;28;20032;-72
2022/11/08 04:57:46;;;;;;;8.27;2.70;;;12.50;99.90;;;;;;5107010;28;20032;-72
2022/11/08 05:00:12;;;;;;;7.65;1.88;;;12.50;99.90;;;;;;5107142;28;20117;-72
2022/11/08 05:02:38;;;;;;;10.63;2.33;;;12.50;99.90;;;;;;5105897;28;20499;-72
2022/11/08 05:05:04;;;;;;;14.38;3.20;;;12.50;99.90;;;;;;5085590;28;20163;-71
2022/11/08 05:07:30;;;;;;;4.93;1.42;;;12.40;99.90;;;;;;5102301;28;20110;-72
2022/11/08 05:09:56;;;;;;;8.52;2.20;;;12.40;99.90;;;;;;5073571;28;20294;-72
2022/11/08 05:12:22;;;;;;;10.68;2.67;;;12.40;99.90;;;;;;5104423;28;20081;-73
2022/11/08 05:14:48;;;;;;;8.57;2.20;;;12.40;99.90;;;;;;5088588;28;20038;-72
2022/11/08 05:17:14;;;;;;;8.40;2.10;;;12.40;99.90;;;;;;5084405;28;20031;-72
2022/11/08 05:25:08;;;;;;;7.90;2.15;;;12.30;99.90;;;;;;5106463;28;20476;-72
2022/11/08 05:27:34;;;;;;;5.45;1.80;;;12.30;99.90;;;;;;5104053;28;20062;-72
2022/11/08 05:30:00;;;;;;;8.27;2.25;;;12.30;99.90;;;;;;5105765;28;20062;-72
2022/11/08 05:32:25;;;;;;;7.30;1.98;;;12.30;99.90;;;;;;5079639;28;20591;-72
2022/11/08 05:34:51;;;;;;;6.60;2.03;;;12.30;99.90;;;;;;5090453;28;20482;-72
2022/11/08 05:37:17;;;;;;;9.07;2.53;;;12.30;99.90;;;;;;5100376;28;20081;-72
2022/11/08 05:39:42;;;;;;;6.55;1.90;;;12.30;99.90;;;;;;5084247;28;20089;-72
2022/11/08 05:42:08;;;;;;;5.55;2.03;;;12.30;99.90;;;;;;5097274;28;20028;-72
2022/11/08 05:44:33;;;;;;;7.75;2.10;;;12.30;99.90;;;;;;5096560;28;20034;-72
2022/11/08 05:46:59;;;;;;;9.25;2.70;;;12.30;99.90;;;;;;5102697;28;20047;-72
2022/11/08 05:49:25;;;;;;;5.85;2.30;;;12.20;99.90;;;;;;5095525;28;20107;-71
2022/11/08 05:51:50;;;;;;;8.18;2.40;;;12.20;99.90;;;;;;5089733;28;20385;-74
2022/11/08 05:54:16;;;;;;;8.07;2.35;;;12.20;99.90;;;;;;5087578;28;20032;-71
2022/11/08 05:56:42;;;;;;;8.60;3.90;;;12.20;99.90;;;;;;5084565;28;20372;-71
2022/11/08 05:59:08;;;;;;;8.07;2.40;;;12.20;99.90;;;;;;5095542;28;20024;-72
2022/11/08 06:01:33;;;;;;;9.10;2.55;;;12.20;99.90;;;;;;5100581;28;20031;-72
2022/11/08 06:03:59;;;;;;;6.13;2.20;;;12.20;99.90;;;;;;5099187;28;20039;-72
2022/11/08 06:06:25;;;;;;;10.63;2.95;;;12.10;99.90;;;;;;5113075;28;20503;-72
2022/11/08 06:08:51;;;;;;;7.90;2.67;;;12.10;99.90;;;;;;5082530;28;20601;-72
2022/11/08 06:11:23;;;;;;;6.80;1.90;;;12.10;99.90;;;;;;5103124;28;20054;-72
2022/11/08 06:13:50;;;;;;;10.85;2.65;;;12.10;99.90;;;;;;5105804;28;20034;-72
2022/11/08 06:16:17;;;;;;;6.32;2.13;;;12.10;99.90;;;;;;5089503;28;20059;-71
2022/11/08 06:18:43;;;;;;;9.27;2.63;;;12.10;99.90;;;;;;5085679;28;20031;-72
2022/11/08 06:21:14;;;;;;;8.07;2.70;;;12.10;99.90;;;;;;5099426;28;20035;-71
2022/11/08 06:23:40;;;;;;;;;;;12.10;99.90;;;;;;5103740;28;20024;-71
2022/11/08 06:26:06;;;;;;;6.40;2.30;;;12.10;99.90;;;;;;5088402;28;20370;-71
2022/11/08 06:28:33;;;;;;;7.57;2.63;;;12.10;99.90;;;;;;5101088;28;20027;-71
2022/11/08 06:31:00;;;;;;;9.27;2.17;;;12.10;99.90;;;;;;5096749;28;20059;-71
2022/11/08 06:33:26;;;;;;;6.85;2.58;;;12.10;99.90;;;;;;5098781;28;20036;-72
2022/11/08 06:35:52;;;;;;;7.03;2.35;;;12.10;99.90;;;;;;5082262;28;20674;-72
2022/11/08 06:38:18;;;;;;;6.97;2.00;;;12.10;99.90;;;;;;5101654;28;20036;-72
2022/11/08 06:40:43;;;;;;;5.72;1.77;;;12.20;99.90;;;;;;5076849;28;20080;-72
2022/11/08 06:43:12;;;;;;;9.45;2.90;;;12.20;99.90;;;;;;5096950;28;20483;-72
2022/11/08 06:45:39;;;;;;;7.50;2.25;;;12.20;99.90;;;;;;5078023;28;20036;-72
2022/11/08 06:48:06;;;;;;;9.75;2.25;;;12.20;99.90;;;;;;5090035;28;20043;-75
2022/11/08 06:50:33;;;;;;;8.93;2.38;;;12.20;99.90;;;;;;5093594;27;20398;-74
2022/11/08 06:53:02;;;;;;;10.65;2.67;;;12.10;99.90;;;;;;5104940;28;20035;-74
2022/11/08 06:55:28;;;;;;;7.03;2.50;;;12.10;99.90;;;;;;5086246;28;20031;-73
2022/11/08 06:57:54;;;;;;;6.88;2.15;;;12.10;99.90;;;;;;5101080;28;20034;-73
2022/11/08 07:00:20;;;;;;;8.30;2.15;;;12.10;99.90;;;;;;5105936;28;20062;-71
2022/11/08 07:02:58;;;;;;;5.90;2.47;;;12.10;99.90;;;;;;5089144;28;20081;-71
2022/11/08 07:05:24;;;;;;;7.20;2.10;;;12.10;99.90;;;;;;5083458;28;20031;-72
2022/11/08 07:07:53;;;;;;;9.45;2.65;;;12.10;99.90;;;;;;5098387;27;20172;-72
2022/11/08 07:10:20;;;;;;;7.88;2.60;;;12.10;99.90;;;;;;5104290;28;20089;-72
2022/11/08 07:12:47;;;;;;;7.35;2.35;;;12.20;99.90;;;;;;5088277;28;20088;-76
2022/11/08 07:15:13;;;;;;;6.65;2.78;;;12.10;99.90;;;;;;5103904;28;20032;-71
2022/11/08 07:17:39;;;;;;;6.50;2.33;;;12.10;99.90;;;;;;5102260;28;20035;-72
2022/11/08 07:20:05;;;;;;;7.05;2.97;;;12.10;99.90;;;;;;5084540;28;20043;-72
2022/11/08 07:22:31;;;;;;;6.03;2.10;;;12.10;99.90;;;;;;5086310;28;20418;-72
2022/11/08 07:24:57;;;;;;;11.63;2.50;;;12.10;99.90;;;;;;5088046;28;20043;-72
2022/11/08 07:27:22;;;;;;;7.10;2.42;;;12.00;99.90;;;;;;5068842;28;20083;-73
2022/11/08 07:29:48;;;;;;;6.97;1.98;;;12.10;99.90;;;;;;5087150;28;20367;-72
2022/11/08 07:32:14;;;;;;;11.48;3.03;;;12.00;99.90;;;;;;5084124;28;20039;-72
2022/11/08 07:34:40;;;;;;;8.63;2.60;;;12.10;99.90;;;;;;5108902;28;20479;-73
2022/11/08 07:37:05;;;;;;;6.07;1.65;;;12.10;99.90;;;;;;5110251;28;20114;-72
2022/11/08 07:39:31;;;;;;;7.78;2.70;;;12.30;99.90;;;;;;5093078;28;20019;-72
2022/11/08 07:41:57;;;;;;;8.32;2.45;;;12.60;99.90;;;;;;5088067;28;20085;-72
2022/11/08 07:44:22;;;;;;;7.43;2.42;;;12.40;99.90;;;;;;5108580;28;20028;-72
2022/11/08 07:46:48;;;;;;;8.02;2.20;;;12.40;99.90;;;;;;5108674;28;20031;-72
2022/11/08 07:49:14;;;;;;;9.23;2.60;;;12.30;99.90;;;;;;5090253;28;20020;-72
2022/11/08 07:51:39;;;;;;;5.65;2.88;;;12.20;99.90;;;;;;5088505;28;20181;-72
2022/11/08 07:54:05;;;;;;;6.20;2.42;;;12.20;99.90;;;;;;5107188;28;20514;-72
2022/11/08 07:56:31;;;;;;;9.52;2.65;;;12.30;99.90;;;;;;5110160;28;20611;-72
2022/11/08 07:58:59;;;;;;;6.75;2.50;;;12.30;99.90;;;;;;5090961;28;20170;-72
2022/11/08 08:01:25;;;;;;;5.28;1.92;;;12.30;99.90;;;;;;5105813;28;20072;-72
2022/11/08 08:03:50;;;;;;;5.82;2.25;;;12.40;99.90;;;;;;5108609;28;20132;-72
2022/11/08 08:06:16;;;;;;;7.35;2.35;;;12.40;99.90;;;;;;5086984;28;20024;-72
2022/11/08 08:08:42;;;;;;;7.43;2.35;;;12.40;99.90;;;;;;5089946;28;20157;-71
2022/11/08 08:11:09;;;;;;;10.00;2.45;;;12.50;99.90;;;;;;5091209;28;20036;-73
2022/11/08 08:13:34;;;;;;;8.23;2.53;;;12.50;99.90;;;;;;5111276;28;20277;-73
2022/11/08 08:16:00;;;;;;;6.00;2.35;;;12.50;99.90;;;;;;5090204;28;20028;-72
2022/11/08 08:18:27;;;;;;;8.60;2.70;;;12.50;99.90;;;;;;5078722;28;20031;-72
2022/11/08 08:20:53;;;;;;;7.07;2.05;;;12.50;99.90;;;;;;5090829;28;20027;-73
2022/11/08 08:23:18;;;;;;;6.80;2.30;;;12.60;99.90;;;;;;5108463;28;20110;-73
2022/11/08 08:25:44;;;;;;;8.40;2.03;;;12.60;99.90;;;;;;5091349;28;20051;-72
2022/11/08 08:28:10;;;;;;;8.18;1.90;;;12.60;99.90;;;;;;5108732;28;20055;-73
2022/11/08 08:30:37;;;;;;;10.63;2.35;;;12.70;99.90;;;;;;5091863;28;20622;-73
2022/11/08 08:33:14;;;;;;;11.30;2.20;;;12.70;99.90;;;;;;5091448;28;20027;-72
2022/11/08 08:35:42;;;;;;;8.98;2.38;;;12.70;99.90;;;;;;5093186;28;20023;-73
2022/11/08 08:38:10;;;;;;;8.38;2.30;;;12.70;99.90;;;;;;5087754;28;20081;-73
2022/11/08 08:40:36;;;;;;;4.63;1.67;;;12.70;99.90;;;;;;5107666;28;20045;-73
2022/11/08 08:43:03;;;;;;;7.72;2.10;;;12.70;99.90;;;;;;5109414;28;20108;-73
2022/11/08 08:45:30;;;;;;;8.70;2.38;;;12.70;99.90;;;;;;5090755;28;20028;-73
2022/11/08 08:47:57;;;;;;;6.00;1.73;;;12.70;99.90;;;;;;5107637;28;20027;-73
2022/11/08 08:50:25;;;;;;;7.38;1.90;;;12.70;99.90;;;;;;5109394;28;20059;-73
2022/11/08 08:52:50;;;;;;;8.02;1.85;;;12.70;99.90;;;;;;5107908;28;20034;-73
2022/11/08 08:55:16;;;;;;;7.60;2.00;;;12.70;99.90;;;;;;5091010;28;20028;-72
2022/11/08 08:57:46;;;;;;;5.15;1.92;;;12.70;99.90;;;;;;5104550;28;20110;-72
2022/11/08 09:00:14;;;;;;;4.68;2.00;;;12.70;99.90;;;;;;5087271;28;20073;-72
2022/11/08 09:02:40;;;;;;;6.78;2.25;;;12.80;99.90;;;;;;5101870;28;20096;-72
2022/11/08 09:05:06;;;;;;;7.40;2.22;;;12.80;99.90;;;;;;5086097;28;20414;-72
2022/11/08 09:07:32;;;;;;;8.20;2.10;;;12.80;99.90;;;;;;5105060;28;20027;-72
2022/11/08 09:09:57;;;;;;;3.50;1.80;;;12.90;99.90;;;;;;5106672;28;20037;-72
2022/11/08 09:12:23;;;;;;;11.15;2.63;;;12.90;99.90;;;;;;5108712;28;20039;-73
2022/11/08 09:14:49;;;;;;;6.82;2.78;;;12.90;99.90;;;;;;5087496;28;20019;-72
2022/11/08 09:17:14;;;;;;;8.43;2.20;;;13.00;99.90;;;;;;5107912;28;20063;-72
2022/11/08 09:19:40;;;;;;;5.75;1.73;;;13.00;99.90;;;;;;5109703;28;20513;-72
2022/11/08 09:22:06;;;;;;;5.43;1.90;;;13.00;99.90;;;;;;5104354;27;20024;-72
2022/11/08 09:24:35;;;;;;;10.32;2.20;;;13.10;99.90;;;;;;5089213;28;20501;-72
2022/11/08 09:27:03;;;;;;;4.93;1.92;;;13.10;99.90;;;;;;5089371;28;20088;-72
2022/11/08 09:29:32;;;;;;;6.03;2.65;;;13.10;99.90;;;;;;5108758;28;20016;-72
2022/11/08 09:31:59;;;;;;;4.75;2.00;;;13.20;99.90;;;;;;5104128;27;20028;-72
2022/11/08 09:34:25;;;;;;;6.53;2.53;;;13.20;99.90;;;;;;5072962;28;20612;-72
2022/11/08 09:36:50;;;;;;;8.52;2.47;;;13.30;99.90;;;;;;5088701;28;20053;-72
2022/11/08 09:39:16;;;;;;;8.10;2.28;;;13.30;99.90;;;;;;5109798;28;20506;-72
2022/11/08 09:42:00;;;;;;;8.48;2.60;;;13.30;99.90;;;;;;5091310;28;20149;-72
2022/11/08 09:44:56;;;;;;;6.97;2.10;;;13.30;99.90;;;;;;5090863;28;20035;-73
2022/11/08 09:47:23;;;;;;;6.70;2.25;;;13.40;99.90;;;;;;5068087;28;20038;-73
2022/11/08 09:50:04;;;;;;;10.88;2.03;;;13.40;99.90;;;;;;5074124;28;20080;-73
2022/11/08 09:52:32;;;;;;;6.63;2.30;;;13.50;99.90;;;;;;5106284;28;20032;-72
2022/11/08 09:55:16;;;;;;;6.43;2.42;;;13.50;99.90;;;;;;5103503;28;20036;-72
2022/11/08 09:57:59;;;;;;;5.22;1.80;;;13.50;99.90;;;;;;5109100;28;20038;-72
2022/11/08 10:00:25;;;;;;;6.75;1.80;;;13.50;99.90;;;;;;5090498;28;20312;-72
2022/11/08 10:02:50;;;;;;;6.18;1.65;;;13.50;99.90;;;;;;5089487;28;20433;-73
2022/11/08 10:05:18;;;;;;;5.72;1.85;;;13.60;99.90;;;;;;5107851;28;20100;-72
2022/11/08 10:07:48;;;;;;;4.75;1.65;;;13.60;99.90;;;;;;5085820;28;20043;-73
2022/11/08 10:10:35;;;;;;;7.23;2.93;;;13.60;99.90;;;;;;5107716;28;20496;-73
2022/11/08 10:13:03;;;;;;;9.68;1.92;;;13.70;99.90;;;;;;5094563;28;20824;-72
2022/11/08 10:15:40;;;;;;;4.30;1.83;;;13.70;99.90;;;;;;5112802;28;20031;-72
2022/11/08 10:18:21;;;;;;;5.22;1.63;;;13.70;99.90;;;;;;5093899;28;20027;-72
2022/11/08 10:21:02;;;;;;;6.93;1.60;;;13.70;99.90;;;;;;5094514;28;20027;-72
2022/11/08 10:23:37;;;;;;;3.67;1.67;;;13.70;99.90;;;;;;5095878;28;20028;-72
2022/11/08 10:26:16;;;;;;;10.20;2.75;;;13.70;99.90;;;;;;5075875;28;20403;-73
2022/11/08 10:28:53;;;;;;;6.70;2.00;;;13.70;99.90;;;;;;5093151;28;20487;-73
2022/11/08 10:31:20;;;;;;;6.57;2.15;;;13.70;99.90;;;;;;5094840;28;20034;-73
2022/11/08 10:33:51;;;;;;;6.22;2.45;;;13.80;99.90;;;;;;5111975;28;20031;-72
2022/11/08 10:36:24;;;;;;;4.22;1.85;;;13.80;99.90;;;;;;5092768;28;20053;-73
2022/11/08 10:39:08;;;;;;;7.55;1.80;;;13.80;99.90;;;;;;5110995;28;20024;-72
2022/11/08 10:41:54;;;;;;;6.35;1.73;;;13.80;99.90;;;;;;5087811;28;20096;-73
2022/11/08 10:44:23;;;;;;;5.38;2.47;;;13.80;99.90;;;;;;5090131;28;20111;-73
2022/11/08 10:46:55;;;;;;;6.03;2.13;;;13.90;99.90;;;;;;5110085;28;20028;-72
2022/11/08 10:49:33;;;;;;;4.65;2.00;;;13.90;99.90;;;;;;5076809;28;20415;-72
2022/11/08 10:52:01;;;;;;;8.88;1.98;;;14.00;99.90;;;;;;5110756;28;20069;-72
2022/11/08 10:54:47;;;;;;;4.47;1.70;;;14.00;99.90;;;;;;5109488;28;20027;-72
2022/11/08 10:57:34;;;;;;;5.93;2.20;;;14.10;99.90;;;;;;5110018;28;20396;-72
2022/11/08 11:00:19;;;;;;;5.13;1.73;;;14.10;99.90;;;;;;5091499;28;20084;-72
2022/11/08 11:02:49;;;;;;;4.45;1.65;;;14.20;99.90;;;;;;5107758;28;20265;-72
2022/11/08 11:05:15;;;;;;;8.95;1.98;;;14.20;99.90;;;;;;5111716;28;20031;-73
2022/11/08 11:07:43;;;;;;;5.38;1.75;;;14.30;99.90;;;;;;5092829;28;20027;-72
2022/11/08 11:10:26;;;;;;;5.18;1.85;;;14.30;99.90;;;;;;5112131;28;20461;-72
2022/11/08 11:13:08;;;;;;;9.02;1.77;;;14.30;99.90;;;;;;5073337;28;20092;-72
2022/11/08 11:15:45;;;;;;;4.45;1.88;;;14.40;99.90;;;;;;5101568;28;20143;-73
2022/11/08 11:18:22;;;;;;;4.50;1.95;;;14.40;99.90;;;;;;5105977;28;20042;-73
2022/11/08 11:21:12;;;;;;;4.95;1.83;;;14.40;99.90;;;;;;5108171;28;20376;-72
2022/11/08 11:23:53;;;;;;;6.97;2.72;;;14.50;99.90;;;;;;5111235;28;20031;-72
2022/11/08 11:26:28;;;;;;;3.47;1.45;;;14.60;99.90;;;;;;5110951;28;20054;-73
2022/11/08 11:29:06;;;;;;;7.78;1.75;;;14.60;99.90;;;;;;5107909;27;20128;-72
2022/11/08 11:31:37;;;;;;;3.88;1.63;;;14.60;99.90;;;;;;5110707;28;20073;-71
2022/11/08 11:34:18;;;;;;;7.38;1.60;;;14.70;99.90;;;;;;5092894;28;20019;-72
2022/11/08 11:36:46;;;;;;;4.93;2.10;;;14.70;99.90;;;;;;5091181;28;20035;-71
2022/11/08 11:39:39;;;;;;;9.38;1.80;;;14.80;99.90;;;;;;5106643;28;20106;-72
2022/11/08 11:42:23;;;;;;;5.32;1.65;;;14.80;99.90;;;;;;5109498;28;20047;-72
2022/11/08 11:45:00;;;;;;;5.32;1.80;;;14.80;99.90;;;;;;5109754;28;20028;-73
2022/11/08 11:47:42;;;;;;;4.07;1.58;;;14.90;99.90;;;;;;5090510;28;20050;-72
2022/11/08 11:50:36;;;;;;;3.78;1.48;;;14.90;99.90;;;;;;5107325;28;20063;-73
2022/11/08 11:53:14;;;;;;;4.95;1.17;;;15.00;99.90;;;;;;5089761;28;20080;-73
2022/11/08 11:56:29;;;;;;;4.65;1.30;;;15.00;99.90;;;;;;5108842;28;20395;-72
2022/11/08 11:59:15;;;;;;;3.05;1.42;;;15.10;99.90;;;;;;5087022;28;20488;-72
2022/11/08 12:02:27;;;;;;;4.10;1.35;;;15.10;99.90;;;;;;5107742;28;20088;-73
2022/11/08 12:05:18;;;;;;;6.15;1.10;;;15.20;99.90;;;;;;5095574;28;20079;-72
2022/11/08 12:07:53;;;;;;;2.85;1.20;;;15.20;99.90;;;;;;5089666;28;20506;-72
2022/11/08 12:10:36;;;;;;;4.03;1.40;;;15.20;99.90;;;;;;5104323;28;20563;-72
2022/11/08 12:13:26;;;;;;;10.13;1.40;;;15.20;99.90;;;;;;5110520;28;20126;-71
2022/11/08 12:16:00;;;;;;;5.95;1.70;;;15.30;99.90;;;;;;5106383;27;20058;-73
2022/11/08 12:18:40;;;;;;;3.72;1.42;;;15.30;99.90;;;;;;5073041;28;20512;-73
2022/11/08 12:21:32;;;;;;;6.05;1.23;;;15.30;99.90;;;;;;5091589;28;20440;-71
2022/11/08 12:24:40;;;;;;;5.95;1.40;;;15.30;99.90;;;;;;5111213;28;20612;-73
2022/11/08 12:27:33;;;;;;;3.22;1.30;;;15.30;99.90;;;;;;5109039;28;20495;-72
2022/11/08 12:30:10;;;;;;;3.20;1.40;;;15.20;99.90;;;;;;5050443;28;20039;-72
2022/11/08 12:33:04;;;;;;;6.00;1.20;;;15.30;99.90;;;;;;5087088;28;20395;-72
2022/11/08 12:35:49;;;;;;;5.30;1.92;;;15.30;99.90;;;;;;5075969;28;20353;-75
2022/11/08 12:38:33;;;;;;;2.53;1.10;;;15.30;99.90;;;;;;5105370;28;20032;-73
2022/11/08 12:41:11;;;;;;;3.30;1.30;;;15.30;99.90;;;;;;5107678;28;20110;-73
2022/11/08 12:43:55;;;;;;;6.05;1.15;;;15.30;99.90;;;;;;5092558;28;20020;-73
2022/11/08 12:46:21;;;;;;;3.60;1.20;;;15.40;99.90;;;;;;5111714;28;20038;-73
2022/11/08 12:49:06;;;;;;;2.60;1.30;;;15.40;99.90;;;;;;5091687;28;20416;-73
2022/11/08 12:51:58;;;;;;;3.55;1.15;;;15.30;99.90;;;;;;5107352;28;20966;-74
2022/11/08 12:54:52;;;;;;;4.03;1.50;;;15.40;99.90;;;;;;5108738;28;20285;-73
2022/11/08 12:57:26;;;;;;;6.65;1.52;;;15.30;99.90;;;;;;5104287;28;20039;-73
2022/11/08 13:00:06;;;;;;;5.10;1.30;;;15.40;99.90;;;;;;5104890;28;20073;-73
2022/11/08 13:02:37;;;;;;;4.20;1.67;;;15.40;99.90;;;;;;5087604;28;20032;-73
2022/11/08 13:05:18;;;;;;;3.70;1.20;;;15.40;99.90;;;;;;5109187;28;20108;-73
2022/11/08 13:07:52;;;;;;;6.10;1.67;;;15.40;99.90;;;;;;5090958;28;20486;-72
2022/11/08 13:10:27;;;;;;;3.25;1.10;;;15.40;99.90;;;;;;5091555;28;20031;-73
2022/11/08 13:13:36;;;;;;;4.32;1.30;;;15.30;99.90;;;;;;5091033;28;20061;-72
2022/11/08 13:16:11;;;;;;;2.75;1.30;;;15.40;99.90;;;;;;5106117;28;20023;-72
2022/11/08 13:19:00;;;;;;;3.83;1.38;;;15.40;99.90;;;;;;5089516;28;20028;-73
2022/11/08 13:21:36;;;;;;;5.20;1.40;;;15.40;99.90;;;;;;5106492;28;20023;-72
2022/11/08 13:24:05;;;;;;;4.20;1.27;;;15.30;99.90;;;;;;5091482;28;20058;-72
2022/11/08 13:26:36;;;;;;;3.00;1.30;;;15.30;99.90;;;;;;5090525;28;20539;-72